createdAt,value
2023-05-03T00:00:28.525Z,626.80
2023-05-03T00:01:28.488Z,625.70
2023-05-03T00:02:28.565Z,637.30
2023-05-03T00:03:28.465Z,655.30
2023-05-03T00:04:28.429Z,668.80
2023-05-03T00:05:28.498Z,666.70
2023-05-03T00:06:28.488Z,650.70
2023-05-03T00:07:28.405Z,630.10
2023-05-03T00:08:28.384Z,641.10
2023-05-03T00:09:28.387Z,632.40
2023-05-03T00:10:28.422Z,598.40
2023-05-03T00:11:28.378Z,637.90
2023-05-03T00:12:28.372Z,582.80
2023-05-03T00:13:28.333Z,612.90
2023-05-03T00:14:28.332Z,616.80
2023-05-03T00:15:28.375Z,579.60
2023-05-03T00:16:28.350Z,617.90
2023-05-03T00:17:28.319Z,598.40
2023-05-03T00:18:28.311Z,615.10
2023-05-03T00:19:31.793Z,645.80
2023-05-03T00:20:28.266Z,639.20
2023-05-03T00:21:28.302Z,660.30
2023-05-03T00:22:28.257Z,636.20
2023-05-03T00:23:28.239Z,635.50
2023-05-03T00:24:28.233Z,650.40
2023-05-03T00:25:28.218Z,644.60
2023-05-03T00:26:28.252Z,642.30
2023-05-03T00:27:28.192Z,629.10
2023-05-03T00:28:28.182Z,654.10
2023-05-03T00:29:28.175Z,661.80
2023-05-03T00:30:28.180Z,653.60
2023-05-03T00:31:28.222Z,659.90
2023-05-03T00:32:28.174Z,664.80
2023-05-03T00:33:28.133Z,653.70
2023-05-03T00:34:28.105Z,641.40
2023-05-03T00:35:28.120Z,647.30
2023-05-03T00:36:28.130Z,649.90
2023-05-03T00:37:28.085Z,655.00
2023-05-03T00:38:28.078Z,670.80
2023-05-03T00:39:28.056Z,641.40
2023-05-03T00:40:28.045Z,651.30
2023-05-03T00:41:28.079Z,660.90
2023-05-03T00:42:28.017Z,635.20
2023-05-03T00:43:28.002Z,582.80
2023-05-03T00:44:27.991Z,599.10
2023-05-03T00:45:27.994Z,566.10
2023-05-03T00:46:28.096Z,655.20
2023-05-03T00:47:28.020Z,689.40
2023-05-03T00:48:27.963Z,690.80
2023-05-03T00:49:27.954Z,703.60
2023-05-03T00:50:27.937Z,694.50
2023-05-03T00:51:27.972Z,664.70
2023-05-03T00:52:27.918Z,621.80
2023-05-03T00:53:27.893Z,622.80
2023-05-03T00:54:27.875Z,615.00
2023-05-03T00:55:27.893Z,649.90
2023-05-03T00:56:29.495Z,691.10
2023-05-03T00:57:27.858Z,733.20
2023-05-03T00:58:27.841Z,739.60
2023-05-03T00:59:27.842Z,743.60
2023-05-03T01:00:27.827Z,722.20
2023-05-03T01:01:27.863Z,746.00
2023-05-03T01:02:27.815Z,741.00
2023-05-03T01:03:27.863Z,736.30
2023-05-03T01:04:27.801Z,757.70
2023-05-03T01:05:27.772Z,757.80
2023-05-03T01:06:27.934Z,746.30
2023-05-03T01:07:27.747Z,756.80
2023-05-03T01:08:27.735Z,759.20
2023-05-03T01:09:27.718Z,745.70
2023-05-03T01:10:27.710Z,756.20
2023-05-03T01:11:27.736Z,750.90
2023-05-03T01:12:27.686Z,762.70
2023-05-03T01:13:27.665Z,763.90
2023-05-03T01:14:27.659Z,753.20
2023-05-03T01:15:27.683Z,754.80
2023-05-03T01:16:27.698Z,758.40
2023-05-03T01:17:27.697Z,815.20
2023-05-03T01:18:27.613Z,814.10
2023-05-03T01:19:27.616Z,805.10
2023-05-03T01:20:27.586Z,821.10
2023-05-03T01:21:27.641Z,805.70
2023-05-03T01:22:27.568Z,822.80
2023-05-03T01:23:27.571Z,837.30
2023-05-03T01:24:27.555Z,833.20
2023-05-03T01:25:27.568Z,832.00
2023-05-03T01:26:27.651Z,834.70
2023-05-03T01:27:27.538Z,820.20
2023-05-03T01:28:27.504Z,807.10
2023-05-03T01:29:27.503Z,796.20
2023-05-03T01:30:27.490Z,795.00
2023-05-03T01:31:27.586Z,802.20
2023-05-03T01:32:27.471Z,795.10
2023-05-03T01:33:27.442Z,796.30
2023-05-03T01:34:27.420Z,810.10
2023-05-03T01:35:27.425Z,782.90
2023-05-03T01:36:27.464Z,784.90
2023-05-03T01:37:27.394Z,780.10
2023-05-03T01:38:27.391Z,779.70
2023-05-03T01:39:27.416Z,797.80
2023-05-03T01:40:27.375Z,797.40
2023-05-03T01:41:27.394Z,804.60
2023-05-03T01:42:27.374Z,800.00
2023-05-03T01:43:27.372Z,804.20
2023-05-03T01:44:27.329Z,784.10
2023-05-03T01:45:27.310Z,768.10
2023-05-03T01:46:27.406Z,727.90
2023-05-03T01:47:27.337Z,708.50
2023-05-03T01:48:27.288Z,716.80
2023-05-03T01:49:27.261Z,730.10
2023-05-03T01:50:27.273Z,734.40
2023-05-03T01:51:27.280Z,745.10
2023-05-03T01:52:27.241Z,746.50
2023-05-03T01:53:27.219Z,744.80
2023-05-03T01:54:27.202Z,749.80
2023-05-03T01:55:27.212Z,772.00
2023-05-03T01:56:27.228Z,778.50
2023-05-03T01:57:27.202Z,743.20
2023-05-03T01:58:27.169Z,707.50
2023-05-03T01:59:27.163Z,703.30
2023-05-03T02:00:27.139Z,710.40
2023-05-03T02:01:27.205Z,700.40
2023-05-03T02:02:27.136Z,683.60
2023-05-03T02:03:27.100Z,676.60
2023-05-03T02:04:27.137Z,685.50
2023-05-03T02:05:27.105Z,658.40
2023-05-03T02:06:27.150Z,667.40
2023-05-03T02:07:27.078Z,679.70
2023-05-03T02:08:27.051Z,650.80
2023-05-03T02:09:27.040Z,637.20
2023-05-03T02:10:27.019Z,674.60
2023-05-03T02:11:27.071Z,667.80
2023-05-03T02:12:27.036Z,659.30
2023-05-03T02:13:27.016Z,669.70
2023-05-03T02:14:26.989Z,675.40
2023-05-03T02:15:26.972Z,691.00
2023-05-03T02:16:27.014Z,692.00
2023-05-03T02:17:27.018Z,687.60
2023-05-03T02:18:26.954Z,705.30
2023-05-03T02:19:26.938Z,708.70
2023-05-03T02:20:26.925Z,711.60
2023-05-03T02:21:26.907Z,712.40
2023-05-03T02:22:26.943Z,704.30
2023-05-03T02:23:26.907Z,706.60
2023-05-03T02:24:26.880Z,704.80
2023-05-03T02:25:27.682Z,674.90
2023-05-03T02:26:26.916Z,664.60
2023-05-03T02:27:26.845Z,680.60
2023-05-03T02:28:26.865Z,674.30
2023-05-03T02:29:26.834Z,652.90
2023-05-03T02:30:26.838Z,633.90
2023-05-03T02:31:26.912Z,636.40
2023-05-03T02:32:26.816Z,633.50
2023-05-03T02:33:26.772Z,651.90
2023-05-03T02:34:26.759Z,653.60
2023-05-03T02:35:26.753Z,651.80
2023-05-03T02:36:26.781Z,652.20
2023-05-03T02:37:26.745Z,652.30
2023-05-03T02:38:26.724Z,629.10
2023-05-03T02:39:26.721Z,639.90
2023-05-03T02:40:26.683Z,641.00
2023-05-03T02:41:26.730Z,663.00
2023-05-03T02:42:26.695Z,662.80
2023-05-03T02:43:26.676Z,666.70
2023-05-03T02:44:26.676Z,665.00
2023-05-03T02:45:26.650Z,654.60
2023-05-03T02:46:26.715Z,657.30
2023-05-03T02:47:26.678Z,657.20
2023-05-03T02:48:26.621Z,669.20
2023-05-03T02:49:26.615Z,659.20
2023-05-03T02:50:26.594Z,662.70
2023-05-03T02:51:26.629Z,671.60
2023-05-03T02:52:26.555Z,689.80
2023-05-03T02:53:26.559Z,690.00
2023-05-03T02:54:26.566Z,698.40
2023-05-03T02:55:26.563Z,697.70
2023-05-03T02:56:26.562Z,693.10
2023-05-03T02:57:26.508Z,698.30
2023-05-03T02:58:26.514Z,706.70
2023-05-03T02:59:26.481Z,704.40
2023-05-03T03:00:26.486Z,690.60
2023-05-03T03:01:26.541Z,668.20
2023-05-03T03:02:26.602Z,652.00
2023-05-03T03:03:26.516Z,640.40
2023-05-03T03:04:26.439Z,650.10
2023-05-03T03:05:26.416Z,637.30
2023-05-03T03:06:26.505Z,629.20
2023-05-03T03:07:26.418Z,632.60
2023-05-03T03:08:26.390Z,631.40
2023-05-03T03:09:26.390Z,639.40
2023-05-03T03:10:26.368Z,643.70
2023-05-03T03:11:26.383Z,640.80
2023-05-03T03:12:26.352Z,642.10
2023-05-03T03:13:26.328Z,647.80
2023-05-03T03:14:26.343Z,627.20
2023-05-03T03:15:26.313Z,641.60
2023-05-03T03:16:26.417Z,635.00
2023-05-03T03:17:26.318Z,636.70
2023-05-03T03:18:26.293Z,649.20
2023-05-03T03:19:26.266Z,649.00
2023-05-03T03:20:26.266Z,652.20
2023-05-03T03:21:26.301Z,653.90
2023-05-03T03:22:26.255Z,664.30
2023-05-03T03:23:26.230Z,654.00
2023-05-03T03:24:26.216Z,664.60
2023-05-03T03:25:26.233Z,662.50
2023-05-03T03:26:26.254Z,663.50
2023-05-03T03:27:26.190Z,668.60
2023-05-03T03:28:26.176Z,689.00
2023-05-03T03:29:26.168Z,690.20
2023-05-03T03:30:26.145Z,692.60
2023-05-03T03:31:26.230Z,705.50
2023-05-03T03:32:26.113Z,707.30
2023-05-03T03:33:26.233Z,715.20
2023-05-03T03:34:26.093Z,719.00
2023-05-03T03:35:26.090Z,738.60
2023-05-03T03:36:26.111Z,744.30
2023-05-03T03:37:26.076Z,731.60
2023-05-03T03:38:26.064Z,701.70
2023-05-03T03:39:26.053Z,759.30
2023-05-03T03:40:26.040Z,740.10
2023-05-03T03:41:26.063Z,699.00
2023-05-03T03:42:26.016Z,770.20
2023-05-03T03:43:26.022Z,759.00
2023-05-03T03:44:25.990Z,755.70
2023-05-03T03:45:25.979Z,748.90
2023-05-03T03:46:26.081Z,772.00
2023-05-03T03:47:26.076Z,767.30
2023-05-03T03:48:25.943Z,733.40
2023-05-03T03:49:25.960Z,751.90
2023-05-03T03:50:25.925Z,716.50
2023-05-03T03:51:25.968Z,788.40
2023-05-03T03:52:25.907Z,782.40
2023-05-03T03:53:25.876Z,771.90
2023-05-03T03:54:25.877Z,778.60
2023-05-03T03:55:25.890Z,770.10
2023-05-03T03:56:25.902Z,764.90
2023-05-03T03:57:25.840Z,754.90
2023-05-03T03:58:25.839Z,760.80
2023-05-03T03:59:25.834Z,757.60
2023-05-03T04:00:25.843Z,756.00
2023-05-03T04:01:25.834Z,755.60
2023-05-03T04:02:25.831Z,743.50
2023-05-03T04:03:25.881Z,730.90
2023-05-03T04:04:25.836Z,726.80
2023-05-03T04:05:25.752Z,707.20
2023-05-03T04:06:25.886Z,702.90
2023-05-03T04:07:25.726Z,685.30
2023-05-03T04:08:25.731Z,661.40
2023-05-03T04:09:25.705Z,647.90
2023-05-03T04:10:25.710Z,615.50
2023-05-03T04:11:25.750Z,600.80
2023-05-03T04:12:25.683Z,596.00
2023-05-03T04:13:25.674Z,583.30
2023-05-03T04:14:25.655Z,588.50
2023-05-03T04:15:25.637Z,599.90
2023-05-03T04:16:25.654Z,589.30
2023-05-03T04:17:25.671Z,592.10
2023-05-03T04:18:25.632Z,605.20
2023-05-03T04:19:25.603Z,612.80
2023-05-03T04:20:25.608Z,588.90
2023-05-03T04:21:25.584Z,588.80
2023-05-03T04:22:25.593Z,598.40
2023-05-03T04:23:25.568Z,591.10
2023-05-03T04:24:25.565Z,613.00
2023-05-03T04:25:25.555Z,625.80
2023-05-03T04:26:31.813Z,625.80
2023-05-03T04:27:26.544Z,646.40
2023-05-03T04:28:25.502Z,638.10
2023-05-03T04:29:25.486Z,644.10
2023-05-03T04:30:25.492Z,651.50
2023-05-03T04:31:25.566Z,634.90
2023-05-03T04:32:25.523Z,638.80
2023-05-03T04:33:25.442Z,644.30
2023-05-03T04:34:25.443Z,665.50
2023-05-03T04:35:25.426Z,682.70
2023-05-03T04:36:25.460Z,691.50
2023-05-03T04:37:25.431Z,688.90
2023-05-03T04:38:25.383Z,639.90
2023-05-03T04:39:25.363Z,636.80
2023-05-03T04:40:25.368Z,678.30
2023-05-03T04:41:25.352Z,676.10
2023-05-03T04:42:25.381Z,645.80
2023-05-03T04:43:25.323Z,679.90
2023-05-03T04:44:25.322Z,684.30
2023-05-03T04:45:25.319Z,655.80
2023-05-03T04:46:25.326Z,664.20
2023-05-03T04:47:25.373Z,675.60
2023-05-03T04:48:25.273Z,678.00
2023-05-03T04:49:25.254Z,588.70
2023-05-03T04:50:25.235Z,714.30
2023-05-03T04:51:25.249Z,675.40
2023-05-03T04:52:25.276Z,151.00
2023-05-03T04:53:25.220Z,270.00
2023-05-03T04:54:25.218Z,332.90
2023-05-03T04:55:25.204Z,133.00
2023-05-03T04:56:25.216Z,134.70
2023-05-03T04:57:25.206Z,388.80
2023-05-03T04:58:25.175Z,318.50
2023-05-03T04:59:25.169Z,242.10
2023-05-03T05:00:25.172Z,302.40
2023-05-03T05:01:25.178Z,365.60
2023-05-03T05:02:25.252Z,377.90
2023-05-03T05:03:25.190Z,331.80
2023-05-03T05:04:25.098Z,266.40
2023-05-03T05:05:25.077Z,274.70
2023-05-03T05:06:25.110Z,292.40
2023-05-03T05:07:25.096Z,251.00
2023-05-03T05:08:25.042Z,197.40
2023-05-03T05:09:25.059Z,183.40
2023-05-03T05:10:25.021Z,168.20
2023-05-03T05:11:24.997Z,200.60
2023-05-03T05:12:25.046Z,618.60
2023-05-03T05:13:25.006Z,578.70
2023-05-03T05:14:24.976Z,548.30
2023-05-03T05:15:24.950Z,360.00
2023-05-03T05:16:24.973Z,488.30
2023-05-03T05:17:25.052Z,553.00
2023-05-03T05:18:24.997Z,530.70
2023-05-03T05:19:24.921Z,187.90
2023-05-03T05:20:24.936Z,566.60
2023-05-03T05:21:24.904Z,528.90
2023-05-03T05:22:24.922Z,513.40
2023-05-03T05:23:24.877Z,98.50
2023-05-03T05:24:24.855Z,124.70
2023-05-03T05:25:24.850Z,73.60
2023-05-03T05:26:24.875Z,596.50
2023-05-03T05:27:25.372Z,552.90
2023-05-03T05:28:24.825Z,540.20
2023-05-03T05:29:24.798Z,556.80
2023-05-03T05:30:24.797Z,515.50
2023-05-03T05:31:24.816Z,490.40
2023-05-03T05:32:24.782Z,485.20
2023-05-03T05:33:24.808Z,478.90
2023-05-03T05:34:24.749Z,482.60
2023-05-03T05:35:24.744Z,472.10
2023-05-03T05:36:24.748Z,448.80
2023-05-03T05:37:24.740Z,462.80
2023-05-03T05:38:24.720Z,424.60
2023-05-03T05:39:24.721Z,456.50
2023-05-03T05:40:24.711Z,454.10
2023-05-03T05:41:24.691Z,476.40
2023-05-03T05:42:24.697Z,389.30
2023-05-03T05:43:24.680Z,443.60
2023-05-03T05:44:24.636Z,433.50
2023-05-03T05:45:24.641Z,429.10
2023-05-03T05:46:24.647Z,413.20
2023-05-03T05:47:24.722Z,411.90
2023-05-03T05:48:24.598Z,381.40
2023-05-03T05:49:24.561Z,369.00
2023-05-03T05:50:24.585Z,382.50
2023-05-03T05:51:24.548Z,406.10
2023-05-03T05:52:24.593Z,401.60
2023-05-03T05:53:24.539Z,407.50
2023-05-03T05:54:24.535Z,387.00
2023-05-03T05:55:24.512Z,451.60
2023-05-03T05:56:24.511Z,466.20
2023-05-03T05:57:24.520Z,407.60
2023-05-03T05:58:24.494Z,432.90
2023-05-03T05:59:24.480Z,390.80
2023-05-03T06:00:24.519Z,384.20
2023-05-03T06:01:24.448Z,373.00
2023-05-03T06:02:24.539Z,391.10
2023-05-03T06:03:24.448Z,559.90
2023-05-03T06:04:24.436Z,465.50
2023-05-03T06:05:24.435Z,339.00
2023-05-03T06:06:24.450Z,53.10
2023-05-03T06:07:24.413Z,83.40
2023-05-03T06:08:24.394Z,81.40
2023-05-03T06:09:25.203Z,83.00
2023-05-03T06:10:24.353Z,88.60
2023-05-03T06:11:24.324Z,113.40
2023-05-03T06:12:24.391Z,84.10
2023-05-03T06:13:24.332Z,103.40
2023-05-03T06:14:24.297Z,99.20
2023-05-03T06:15:24.333Z,124.20
2023-05-03T06:16:24.337Z,86.50
2023-05-03T06:17:24.324Z,103.90
2023-05-03T06:18:24.264Z,103.80
2023-05-03T06:19:24.236Z,82.70
2023-05-03T06:20:24.244Z,116.70
2023-05-03T06:21:24.222Z,117.90
2023-05-03T06:22:24.252Z,70.60
2023-05-03T06:23:24.197Z,53.90
2023-05-03T06:24:24.183Z,108.10
2023-05-03T06:25:24.201Z,69.40
2023-05-03T06:26:24.177Z,66.40
2023-05-03T06:27:24.213Z,77.00
2023-05-03T06:28:24.159Z,70.80
2023-05-03T06:29:24.144Z,61.30
2023-05-03T06:30:24.121Z,67.40
2023-05-03T06:31:24.134Z,55.00
2023-05-03T06:32:24.177Z,52.10
2023-05-03T06:33:24.080Z,48.60
2023-05-03T06:34:24.073Z,42.80
2023-05-03T06:35:24.059Z,59.40
2023-05-03T06:36:24.055Z,40.10
2023-05-03T06:37:24.089Z,46.30
2023-05-03T06:38:24.039Z,40.90
2023-05-03T06:39:24.035Z,48.00
2023-05-03T06:40:24.010Z,51.20
2023-05-03T06:41:24.002Z,46.90
2023-05-03T06:42:24.010Z,45.20
2023-05-03T06:43:23.964Z,55.50
2023-05-03T06:44:23.965Z,49.60
2023-05-03T06:45:23.965Z,67.10
2023-05-03T06:46:23.989Z,60.50
2023-05-03T06:47:23.956Z,60.60
2023-05-03T06:48:24.016Z,51.30
2023-05-03T06:49:23.923Z,45.80
2023-05-03T06:50:23.917Z,52.70
2023-05-03T06:51:23.888Z,48.70
2023-05-03T06:52:23.923Z,45.80
2023-05-03T06:53:23.878Z,46.70
2023-05-03T06:54:23.866Z,60.50
2023-05-03T06:55:23.848Z,53.10
2023-05-03T06:56:23.839Z,56.40
2023-05-03T06:57:23.859Z,54.00
2023-05-03T06:58:23.824Z,60.50
2023-05-03T06:59:23.811Z,61.50
2023-05-03T07:00:23.766Z,77.10
2023-05-03T07:01:23.788Z,52.40
2023-05-03T07:02:23.907Z,55.70
2023-05-03T07:03:23.896Z,78.80
2023-05-03T07:04:23.753Z,76.50
2023-05-03T07:05:23.742Z,84.80
2023-05-03T07:06:23.786Z,66.10
2023-05-03T07:07:23.786Z,106.30
2023-05-03T07:08:23.706Z,108.60
2023-05-03T07:09:35.472Z,86.80
2023-05-03T07:10:24.695Z,63.30
2023-05-03T07:11:23.637Z,76.50
2023-05-03T07:12:23.679Z,63.60
2023-05-03T07:13:23.640Z,52.40
2023-05-03T07:14:23.636Z,53.30
2023-05-03T07:15:23.630Z,70.10
2023-05-03T07:16:23.704Z,89.10
2023-05-03T07:17:23.628Z,73.20
2023-05-03T07:18:23.600Z,67.60
2023-05-03T07:19:23.587Z,126.10
2023-05-03T07:20:23.558Z,80.70
2023-05-03T07:21:23.570Z,98.20
2023-05-03T07:22:23.610Z,93.10
2023-05-03T07:23:23.535Z,72.90
2023-05-03T07:24:23.531Z,86.80
2023-05-03T07:25:23.571Z,81.50
2023-05-03T07:26:23.496Z,100.20
2023-05-03T07:27:23.477Z,76.00
2023-05-03T07:28:23.504Z,69.20
2023-05-03T07:29:23.423Z,67.50
2023-05-03T07:30:23.478Z,71.90
2023-05-03T07:31:23.447Z,84.90
2023-05-03T07:32:23.536Z,74.10
2023-05-03T07:33:23.516Z,92.70
2023-05-03T07:34:23.422Z,104.40
2023-05-03T07:35:23.410Z,81.00
2023-05-03T07:36:23.421Z,111.20
2023-05-03T07:37:23.394Z,193.30
2023-05-03T07:38:23.380Z,161.30
2023-05-03T07:39:23.330Z,202.50
2023-05-03T07:40:23.337Z,253.30
2023-05-03T07:41:23.305Z,198.60
2023-05-03T07:42:23.341Z,237.40
2023-05-03T07:43:23.297Z,166.20
2023-05-03T07:44:23.286Z,221.50
2023-05-03T07:45:23.278Z,119.80
2023-05-03T07:46:23.376Z,104.80
2023-05-03T07:47:23.292Z,225.10
2023-05-03T07:48:23.276Z,220.00
2023-05-03T07:49:23.237Z,299.60
2023-05-03T07:50:23.203Z,318.10
2023-05-03T07:51:23.195Z,498.90
2023-05-03T07:52:23.242Z,437.60
2023-05-03T07:53:23.177Z,487.40
2023-05-03T07:54:23.220Z,456.90
2023-05-03T07:55:23.135Z,485.90
2023-05-03T07:56:23.141Z,409.70
2023-05-03T07:57:23.166Z,316.40
2023-05-03T07:58:31.383Z,289.20
2023-05-03T07:59:24.123Z,282.40
2023-05-03T08:00:23.090Z,296.10
2023-05-03T08:01:23.113Z,306.50
2023-05-03T08:02:23.224Z,293.80
2023-05-03T08:03:23.312Z,259.50
2023-05-03T08:04:23.302Z,98.90
2023-05-03T08:05:23.096Z,50.50
2023-05-03T08:06:23.060Z,61.70
2023-05-03T08:07:23.054Z,47.00
2023-05-03T08:08:23.105Z,88.80
2023-05-03T08:09:22.990Z,92.00
2023-05-03T08:10:23.016Z,72.20
2023-05-03T08:11:22.973Z,86.00
2023-05-03T08:12:23.022Z,50.40
2023-05-03T08:13:22.979Z,64.30
2023-05-03T08:14:22.956Z,79.20
2023-05-03T08:15:22.965Z,57.90
2023-05-03T08:16:23.124Z,66.60
2023-05-03T08:17:22.918Z,179.20
2023-05-03T08:18:23.855Z,66.60
2023-05-03T08:19:22.909Z,61.70
2023-05-03T08:20:22.919Z,73.10
2023-05-03T08:21:22.876Z,91.60
2023-05-03T08:22:22.892Z,213.60
2023-05-03T08:23:22.919Z,68.20
2023-05-03T08:24:22.831Z,160.30
2023-05-03T08:25:22.810Z,159.10
2023-05-03T08:26:22.817Z,236.00
2023-05-03T08:27:22.926Z,216.40
2023-05-03T08:28:22.840Z,173.50
2023-05-03T08:29:22.777Z,156.40
2023-05-03T08:30:22.786Z,122.50
2023-05-03T08:31:22.812Z,165.00
2023-05-03T08:32:22.757Z,111.30
2023-05-03T08:33:22.774Z,91.60
2023-05-03T08:34:22.739Z,156.70
2023-05-03T08:35:22.734Z,168.70
2023-05-03T08:36:22.727Z,171.40
2023-05-03T08:37:22.733Z,169.10
2023-05-03T08:38:27.223Z,116.00
2023-05-03T08:39:22.690Z,135.10
2023-05-03T08:40:22.719Z,174.80
2023-05-03T08:41:22.693Z,219.60
2023-05-03T08:42:25.199Z,87.90
2023-05-03T08:43:22.690Z,130.20
2023-05-03T08:44:22.620Z,133.90
2023-05-03T08:45:22.642Z,175.40
2023-05-03T08:46:22.694Z,108.60
2023-05-03T08:47:22.605Z,91.50
2023-05-03T08:48:22.630Z,114.80
2023-05-03T08:49:22.583Z,103.70
2023-05-03T08:50:22.536Z,175.50
2023-05-03T08:51:22.534Z,189.10
2023-05-03T08:52:22.508Z,231.50
2023-05-03T08:53:22.569Z,166.40
2023-05-03T08:54:22.500Z,186.40
2023-05-03T08:55:22.525Z,212.40
2023-05-03T08:56:22.471Z,124.90
2023-05-03T08:57:22.468Z,191.60
2023-05-03T08:58:22.487Z,108.30
2023-05-03T08:59:22.445Z,152.00
2023-05-03T09:00:22.440Z,245.50
2023-05-03T09:01:22.449Z,195.60
2023-05-03T09:02:22.420Z,223.40
2023-05-03T09:03:22.610Z,250.80
2023-05-03T09:04:22.426Z,268.20
2023-05-03T09:05:22.368Z,140.40
2023-05-03T09:06:22.410Z,174.30
2023-05-03T09:07:22.383Z,80.80
2023-05-03T09:08:22.376Z,89.70
2023-05-03T09:09:22.326Z,53.80
2023-05-03T09:10:22.306Z,66.70
2023-05-03T09:11:22.317Z,72.70
2023-05-03T09:12:22.308Z,133.90
2023-05-03T09:13:22.316Z,242.00
2023-05-03T09:14:22.276Z,160.10
2023-05-03T09:15:22.344Z,303.90
2023-05-03T09:16:22.352Z,160.80
2023-05-03T09:17:22.223Z,153.80
2023-05-03T09:18:22.353Z,178.80
2023-05-03T09:19:22.215Z,271.90
2023-05-03T09:20:22.192Z,314.60
2023-05-03T09:21:22.190Z,193.40
2023-05-03T09:22:22.177Z,58.30
2023-05-03T09:23:22.219Z,125.70
2023-05-03T09:24:22.198Z,77.80
2023-05-03T09:25:22.157Z,118.80
2023-05-03T09:26:22.149Z,77.50
2023-05-03T09:27:22.159Z,118.80
2023-05-03T09:28:22.168Z,154.40
2023-05-03T09:29:22.100Z,71.10
2023-05-03T09:30:22.084Z,128.70
2023-05-03T09:31:22.098Z,49.40
2023-05-03T09:32:22.118Z,61.70
2023-05-03T09:33:22.286Z,121.10
2023-05-03T09:34:22.077Z,189.00
2023-05-03T09:35:22.068Z,60.90
2023-05-03T09:36:22.021Z,57.00
2023-05-03T09:37:22.049Z,70.80
2023-05-03T09:38:22.058Z,126.30
2023-05-03T09:39:22.006Z,135.50
2023-05-03T09:40:21.982Z,157.00
2023-05-03T09:41:21.993Z,158.50
2023-05-03T09:42:21.977Z,104.00
2023-05-03T09:43:21.996Z,128.40
2023-05-03T09:44:21.959Z,99.10
2023-05-03T09:45:21.948Z,101.10
2023-05-03T09:46:21.936Z,119.90
2023-05-03T09:47:21.917Z,91.80
2023-05-03T09:48:21.967Z,73.90
2023-05-03T09:49:21.889Z,81.70
2023-05-03T09:50:21.888Z,74.10
2023-05-03T09:51:21.871Z,66.10
2023-05-03T09:52:21.901Z,115.00
2023-05-03T09:53:21.839Z,85.70
2023-05-03T09:54:23.019Z,93.70
2023-05-03T09:55:21.822Z,51.80
2023-05-03T09:56:21.805Z,52.40
2023-05-03T09:57:21.856Z,51.80
2023-05-03T09:58:21.807Z,51.40
2023-05-03T09:59:21.784Z,42.90
2023-05-03T10:00:21.767Z,39.00
2023-05-03T10:01:21.774Z,38.80
2023-05-03T10:02:21.901Z,55.90
2023-05-03T10:03:21.789Z,49.60
2023-05-03T10:04:21.747Z,53.30
2023-05-03T10:05:21.741Z,54.70
2023-05-03T10:06:21.788Z,43.50
2023-05-03T10:07:21.717Z,40.70
2023-05-03T10:08:21.729Z,55.50
2023-05-03T10:09:21.669Z,91.80
2023-05-03T10:10:21.690Z,176.70
2023-05-03T10:11:21.654Z,144.50
2023-05-03T10:12:21.642Z,77.40
2023-05-03T10:13:21.731Z,96.50
2023-05-03T10:14:21.651Z,209.10
2023-05-03T10:15:21.594Z,47.50
2023-05-03T10:16:21.771Z,218.40
2023-05-03T10:17:22.317Z,114.00
2023-05-03T10:18:21.661Z,152.10
2023-05-03T10:19:21.626Z,181.30
2023-05-03T10:20:21.552Z,214.20
2023-05-03T10:21:21.632Z,179.10
2023-05-03T10:22:21.507Z,296.80
2023-05-03T10:23:21.623Z,281.70
2023-05-03T10:24:21.498Z,427.80
2023-05-03T10:25:21.508Z,342.80
2023-05-03T10:26:21.513Z,264.50
2023-05-03T10:27:21.501Z,163.10
2023-05-03T10:28:21.499Z,179.00
2023-05-03T10:29:21.459Z,91.40
2023-05-03T10:30:21.424Z,165.70
2023-05-03T10:31:21.513Z,165.90
2023-05-03T10:32:21.433Z,150.70
2023-05-03T10:33:21.423Z,148.80
2023-05-03T10:34:21.414Z,101.90
2023-05-03T10:35:21.387Z,103.40
2023-05-03T10:36:21.379Z,144.10
2023-05-03T10:37:21.367Z,111.40
2023-05-03T10:38:21.456Z,100.80
2023-05-03T10:39:21.349Z,120.70
2023-05-03T10:40:21.353Z,81.60
2023-05-03T10:41:21.311Z,116.00
2023-05-03T10:42:21.281Z,133.00
2023-05-03T10:43:21.330Z,126.00
2023-05-03T10:44:21.282Z,117.00
2023-05-03T10:45:21.267Z,112.70
2023-05-03T10:46:21.302Z,107.00
2023-05-03T10:47:21.282Z,64.20
2023-05-03T10:48:21.257Z,64.40
2023-05-03T10:49:21.227Z,72.80
2023-05-03T10:50:21.208Z,90.70
2023-05-03T10:51:21.187Z,94.20
2023-05-03T10:52:21.216Z,82.30
2023-05-03T10:53:21.215Z,85.10
2023-05-03T10:54:21.192Z,85.60
2023-05-03T10:55:21.149Z,99.00
2023-05-03T10:56:21.150Z,124.40
2023-05-03T10:57:21.129Z,149.80
2023-05-03T10:58:21.169Z,149.60
2023-05-03T10:59:21.108Z,146.30
2023-05-03T11:00:21.130Z,195.40
2023-05-03T11:01:21.143Z,192.20
2023-05-03T11:02:21.088Z,236.60
2023-05-03T11:03:21.133Z,212.30
2023-05-03T11:04:21.113Z,242.30
2023-05-03T11:05:21.051Z,270.00
2023-05-03T11:06:21.062Z,111.10
2023-05-03T11:07:21.123Z,80.80
2023-05-03T11:08:21.049Z,77.50
2023-05-03T11:09:21.004Z,84.60
2023-05-03T11:10:20.989Z,90.20
2023-05-03T11:11:20.973Z,92.70
2023-05-03T11:12:20.989Z,61.10
2023-05-03T11:13:21.028Z,51.20
2023-05-03T11:14:20.944Z,57.10
2023-05-03T11:15:20.945Z,59.70
2023-05-03T11:16:20.984Z,62.10
2023-05-03T11:17:20.926Z,61.50
2023-05-03T11:18:20.953Z,57.80
2023-05-03T11:19:20.889Z,53.00
2023-05-03T11:20:20.880Z,50.70
2023-05-03T11:21:20.856Z,46.10
2023-05-03T11:22:20.874Z,37.20
2023-05-03T11:23:20.958Z,33.60
2023-05-03T11:24:20.843Z,37.00
2023-05-03T11:25:20.848Z,50.60
2023-05-03T11:26:20.838Z,54.30
2023-05-03T11:27:20.807Z,58.30
2023-05-03T11:28:20.856Z,62.80
2023-05-03T11:29:20.936Z,59.10
2023-05-03T11:30:20.781Z,55.70
2023-05-03T11:31:20.832Z,65.20
2023-05-03T11:32:20.890Z,82.70
2023-05-03T11:33:20.754Z,64.60
2023-05-03T11:34:20.799Z,59.40
2023-05-03T11:35:20.758Z,48.90
2023-05-03T11:36:20.692Z,51.80
2023-05-03T11:37:20.660Z,48.80
2023-05-03T11:38:20.676Z,49.10
2023-05-03T11:39:21.105Z,55.10
2023-05-03T11:40:20.677Z,61.70
2023-05-03T11:41:20.663Z,60.90
2023-05-03T11:42:20.645Z,78.90
2023-05-03T11:43:20.644Z,98.30
2023-05-03T11:44:20.652Z,58.40
2023-05-03T11:45:22.827Z,65.30
2023-05-03T11:46:20.696Z,51.30
2023-05-03T11:47:20.598Z,46.70
2023-05-03T11:48:20.655Z,80.40
2023-05-03T11:49:21.025Z,49.50
2023-05-03T11:50:20.571Z,52.30
2023-05-03T11:51:20.562Z,53.70
2023-05-03T11:52:20.512Z,68.00
2023-05-03T11:53:20.528Z,90.30
2023-05-03T11:54:26.221Z,65.10
2023-05-03T11:55:21.519Z,57.40
2023-05-03T11:56:20.554Z,58.20
2023-05-03T11:57:20.485Z,60.60
2023-05-03T11:58:20.472Z,59.20
2023-05-03T11:59:20.518Z,47.30
2023-05-03T12:00:20.472Z,48.50
2023-05-03T12:01:20.502Z,55.30
2023-05-03T12:02:20.634Z,49.10
2023-05-03T12:03:20.678Z,45.90
2023-05-03T12:04:20.623Z,40.00
2023-05-03T12:05:20.942Z,40.60
2023-05-03T12:06:20.756Z,38.70
2023-05-03T12:07:22.741Z,40.50
2023-05-03T12:08:21.152Z,39.40
2023-05-03T12:09:22.035Z,36.10
2023-05-03T12:10:23.979Z,36.80
2023-05-03T12:11:22.350Z,37.10
2023-05-03T12:12:25.657Z,37.70
2023-05-03T12:13:21.521Z,40.60
2023-05-03T12:14:20.394Z,42.80
2023-05-03T12:15:21.595Z,42.00
2023-05-03T12:16:20.408Z,46.80
2023-05-03T12:17:20.438Z,46.30
2023-05-03T12:18:20.495Z,50.80
2023-05-03T12:19:23.056Z,52.60
2023-05-03T12:22:25.639Z,45.30
2023-05-03T12:23:21.778Z,39.30
2023-05-03T12:24:20.740Z,34.80
2023-05-03T12:25:21.136Z,36.20
2023-05-03T12:26:20.314Z,38.70
2023-05-03T12:27:20.800Z,35.80
2023-05-03T12:28:21.371Z,34.80
2023-05-03T12:29:21.161Z,33.40
2023-05-03T12:30:21.852Z,33.10
2023-05-03T12:31:22.530Z,37.00
2023-05-03T12:33:22.204Z,43.00
2023-05-03T12:34:33.955Z,35.70
2023-05-03T12:35:21.466Z,32.40
2023-05-03T12:36:21.367Z,31.60
2023-05-03T12:37:22.220Z,32.30
2023-05-03T12:38:23.371Z,32.60
2023-05-03T12:39:21.969Z,32.30